createdAt,value
2023-10-06T00:02:30.917Z,100.00
2023-10-06T00:05:12.609Z,100.00
2023-10-06T00:07:42.453Z,100.00
2023-10-06T00:10:21.618Z,100.00
2023-10-06T00:12:52.435Z,100.00
2023-10-06T00:15:25.447Z,100.00
2023-10-06T00:17:57.534Z,100.00
2023-10-06T00:20:40.586Z,100.00
2023-10-06T00:23:14.535Z,100.00
2023-10-06T00:25:46.319Z,100.00
2023-10-06T00:28:19.431Z,100.00
2023-10-06T00:30:57.453Z,100.00
2023-10-06T00:33:29.192Z,100.00
2023-10-06T00:36:03.437Z,100.00
2023-10-06T00:38:33.446Z,100.00
2023-10-06T00:41:08.067Z,100.00
2023-10-06T00:43:41.171Z,100.00
2023-10-06T00:46:11.447Z,100.00
2023-10-06T00:48:43.062Z,100.00
2023-10-06T00:51:21.157Z,100.00
2023-10-06T00:53:53.022Z,100.00
2023-10-06T00:56:25.158Z,100.00
2023-10-06T00:58:55.676Z,100.00
2023-10-06T01:01:26.025Z,100.00
2023-10-06T01:04:02.964Z,100.00
2023-10-06T01:06:40.332Z,100.00
2023-10-06T01:09:16.727Z,100.00
2023-10-06T01:11:49.527Z,100.00
2023-10-06T01:14:23.420Z,100.00
2023-10-06T01:16:54.654Z,100.00
2023-10-06T01:19:34.638Z,100.00
2023-10-06T01:22:30.195Z,100.00
2023-10-06T01:25:00.592Z,100.00
2023-10-06T01:27:30.514Z,100.00
2023-10-06T01:30:19.072Z,100.00
2023-10-06T01:32:52.645Z,100.00
2023-10-06T01:35:25.792Z,100.00
2023-10-06T01:38:01.992Z,100.00
2023-10-06T01:40:45.164Z,100.00
2023-10-06T01:43:16.586Z,100.00
2023-10-06T01:45:47.892Z,100.00
2023-10-06T01:48:31.067Z,100.00
2023-10-06T01:51:01.134Z,100.00
2023-10-06T01:53:37.076Z,100.00
2023-10-06T01:56:08.952Z,100.00
2023-10-06T01:58:40.832Z,100.00
2023-10-06T02:01:12.320Z,100.00
2023-10-06T02:03:42.704Z,100.00
2023-10-06T02:06:17.838Z,100.00
2023-10-06T02:08:54.261Z,100.00
2023-10-06T02:11:32.236Z,100.00
2023-10-06T02:14:02.168Z,100.00
2023-10-06T02:16:31.877Z,100.00
2023-10-06T02:19:03.705Z,100.00
2023-10-06T02:21:33.455Z,100.00
2023-10-06T02:24:06.931Z,100.00
2023-10-06T02:26:39.676Z,100.00
2023-10-06T02:29:19.670Z,100.00
2023-10-06T02:31:50.078Z,100.00
2023-10-06T02:34:30.670Z,100.00
2023-10-06T02:37:01.541Z,100.00
2023-10-06T02:39:35.718Z,100.00
2023-10-06T02:42:10.145Z,100.00
2023-10-06T02:44:42.913Z,100.00
2023-10-06T02:47:15.434Z,100.00
2023-10-06T02:49:50.504Z,100.00
2023-10-06T02:52:22.417Z,100.00
2023-10-06T02:55:08.218Z,100.00
2023-10-06T02:57:40.327Z,100.00
2023-10-06T03:00:23.713Z,100.00
2023-10-06T03:02:57.071Z,100.00
2023-10-06T03:05:33.893Z,100.00
2023-10-06T03:08:10.601Z,100.00
2023-10-06T03:10:46.709Z,100.00
2023-10-06T03:13:25.705Z,100.00
2023-10-06T03:15:55.695Z,100.00
2023-10-06T03:18:25.451Z,100.00
2023-10-06T03:21:02.066Z,100.00
2023-10-06T03:23:33.573Z,100.00
2023-10-06T03:26:15.451Z,100.00
2023-10-06T03:28:49.962Z,100.00
2023-10-06T03:31:32.026Z,100.00
2023-10-06T03:34:02.648Z,100.00
2023-10-06T03:36:39.236Z,100.00
2023-10-06T03:39:09.291Z,100.00
2023-10-06T03:41:45.621Z,100.00
2023-10-06T03:44:21.620Z,100.00
2023-10-06T03:46:52.385Z,100.00
2023-10-06T03:49:22.388Z,100.00
2023-10-06T03:51:53.118Z,100.00
2023-10-06T03:54:22.861Z,100.00
2023-10-06T03:56:55.267Z,100.00
2023-10-06T03:59:25.226Z,100.00
2023-10-06T04:01:55.079Z,100.00
2023-10-06T04:04:25.194Z,100.00
2023-10-06T04:06:58.082Z,100.00
2023-10-06T04:09:32.640Z,100.00
2023-10-06T04:12:05.051Z,100.00
2023-10-06T04:14:35.069Z,100.00
2023-10-06T04:17:07.232Z,100.00
2023-10-06T04:19:37.145Z,100.00
2023-10-06T04:22:09.064Z,100.00
2023-10-06T04:24:39.339Z,100.00
2023-10-06T04:27:11.844Z,100.00
2023-10-06T04:29:42.276Z,100.00
2023-10-06T04:32:15.053Z,100.00
2023-10-06T04:34:44.926Z,100.00
2023-10-06T04:37:14.706Z,100.00
2023-10-06T04:39:44.454Z,100.00
2023-10-06T04:42:20.077Z,100.00
2023-10-06T04:44:51.797Z,100.00
2023-10-06T04:47:23.271Z,100.00
2023-10-06T04:49:54.214Z,100.00
2023-10-06T04:52:23.991Z,100.00
2023-10-06T04:54:53.700Z,100.00
2023-10-06T04:57:26.045Z,100.00
2023-10-06T04:59:57.187Z,100.00
2023-10-06T05:02:27.200Z,100.00
2023-10-06T05:04:57.633Z,100.00
2023-10-06T05:07:28.864Z,100.00
2023-10-06T05:09:58.727Z,100.00
2023-10-06T05:12:33.755Z,100.00
2023-10-06T05:15:04.316Z,100.00
2023-10-06T05:17:34.253Z,100.00
2023-10-06T05:20:04.566Z,100.00
2023-10-06T05:22:34.509Z,100.00
2023-10-06T05:25:05.846Z,100.00
2023-10-06T05:27:38.168Z,100.00
2023-10-06T05:30:09.665Z,100.00
2023-10-06T05:32:43.486Z,100.00
2023-10-06T05:35:17.493Z,100.00
2023-10-06T05:37:48.085Z,100.00
2023-10-06T05:40:17.988Z,100.00
2023-10-06T05:42:51.211Z,100.00
2023-10-06T05:45:22.307Z,100.00
2023-10-06T05:47:53.320Z,100.00
2023-10-06T05:50:28.606Z,100.00
2023-10-06T05:53:00.463Z,100.00
2023-10-06T05:55:35.229Z,100.00
2023-10-06T05:58:10.933Z,100.00
2023-10-06T06:00:45.831Z,100.00
2023-10-06T06:03:21.732Z,100.00
2023-10-06T06:05:51.731Z,100.00
2023-10-06T06:08:21.619Z,100.00
2023-10-06T06:10:51.394Z,100.00
2023-10-06T06:13:23.679Z,100.00
2023-10-06T06:15:54.891Z,100.00
2023-10-06T06:18:28.837Z,100.00
2023-10-06T06:21:00.204Z,100.00
2023-10-06T06:23:30.074Z,100.00
2023-10-06T06:26:00.089Z,100.00
2023-10-06T06:28:32.546Z,100.00
2023-10-06T06:31:06.507Z,100.00
2023-10-06T06:33:36.958Z,97.11
2023-10-06T06:36:07.402Z,92.11
2023-10-06T06:38:40.940Z,83.39
2023-10-06T06:41:10.774Z,78.12
2023-10-06T06:43:47.279Z,71.88
2023-10-06T06:46:18.542Z,72.20
2023-10-06T06:48:48.441Z,69.42
2023-10-06T06:51:18.248Z,67.01
2023-10-06T06:53:48.874Z,63.16
2023-10-06T06:56:20.900Z,59.79
2023-10-06T06:58:53.251Z,55.66
2023-10-06T07:01:22.956Z,54.12
2023-10-06T07:03:52.710Z,53.73
2023-10-06T07:06:22.824Z,53.46
2023-10-06T07:08:52.523Z,59.49
2023-10-06T07:11:22.267Z,64.98
2023-10-06T07:13:57.247Z,73.04
2023-10-06T07:16:28.304Z,79.00
2023-10-06T07:18:58.053Z,82.24
2023-10-06T07:21:27.851Z,82.80
2023-10-06T07:23:58.231Z,85.77
2023-10-06T07:26:28.250Z,87.75
2023-10-06T07:29:01.400Z,83.23
2023-10-06T07:31:31.152Z,75.74
2023-10-06T07:34:04.488Z,68.48
2023-10-06T07:36:36.973Z,65.91
2023-10-06T07:39:10.083Z,60.45
2023-10-06T07:41:40.576Z,59.19
2023-10-06T07:44:13.039Z,60.76
2023-10-06T07:46:43.168Z,57.75
2023-10-06T07:49:13.041Z,62.18
2023-10-06T07:51:44.426Z,58.39
2023-10-06T07:54:14.365Z,55.10
2023-10-06T07:56:44.248Z,55.16
2023-10-06T07:59:16.622Z,59.05
2023-10-06T08:01:46.365Z,62.50
2023-10-06T08:04:16.096Z,68.88
2023-10-06T08:06:47.406Z,65.68
2023-10-06T08:09:18.636Z,64.12
2023-10-06T08:11:51.334Z,63.28
2023-10-06T08:14:26.222Z,64.30
2023-10-06T08:16:56.168Z,66.14
2023-10-06T08:19:23.355Z,69.42
2023-10-06T08:21:53.104Z,72.14
2023-10-06T08:24:22.853Z,70.84
2023-10-06T08:26:53.552Z,71.00
2023-10-06T08:29:26.110Z,68.60
2023-10-06T08:31:56.356Z,69.76
2023-10-06T08:34:27.156Z,69.31
2023-10-06T08:36:56.868Z,71.92
2023-10-06T08:39:40.016Z,71.88
2023-10-06T08:42:18.014Z,73.22
2023-10-06T08:44:50.332Z,72.68
2023-10-06T08:47:28.336Z,69.17
2023-10-06T08:50:03.211Z,69.81
2023-10-06T08:52:37.682Z,68.63
2023-10-06T08:55:10.452Z,67.77
2023-10-06T08:57:43.029Z,70.08
2023-10-06T09:00:17.350Z,68.66
2023-10-06T09:02:48.681Z,69.04
2023-10-06T09:05:19.342Z,64.11
2023-10-06T09:08:02.375Z,60.75
2023-10-06T09:10:32.738Z,62.28
2023-10-06T09:13:08.394Z,59.56
2023-10-06T09:15:42.167Z,60.44
2023-10-06T09:18:23.882Z,55.92
2023-10-06T09:20:55.780Z,57.44
2023-10-06T09:23:43.914Z,58.62
2023-10-06T09:26:17.661Z,60.73
2023-10-06T09:28:54.720Z,60.35
2023-10-06T09:31:46.351Z,62.76
2023-10-06T09:34:26.988Z,62.54
2023-10-06T09:36:56.815Z,67.89
2023-10-06T09:39:31.066Z,62.75
2023-10-06T09:42:01.155Z,58.36
2023-10-06T09:44:31.523Z,59.26
2023-10-06T09:47:05.674Z,62.06
2023-10-06T09:49:36.724Z,65.15
2023-10-06T09:52:07.845Z,64.32
2023-10-06T09:54:39.841Z,68.35
2023-10-06T09:57:11.600Z,72.34
2023-10-06T09:59:43.086Z,75.47
2023-10-06T10:02:22.379Z,71.01
2023-10-06T10:04:52.451Z,74.33
2023-10-06T10:07:24.678Z,72.57
2023-10-06T10:09:56.322Z,72.87
2023-10-06T10:12:36.904Z,72.11
2023-10-06T10:15:21.325Z,69.35
2023-10-06T10:18:03.118Z,64.84
2023-10-06T10:20:35.562Z,62.87
2023-10-06T10:23:05.714Z,58.55
2023-10-06T10:25:40.583Z,59.31
2023-10-06T10:28:19.683Z,56.23
2023-10-06T10:31:01.534Z,53.42
2023-10-06T10:33:42.750Z,54.75
2023-10-06T10:36:26.027Z,60.05
2023-10-06T10:39:08.815Z,61.32
2023-10-06T10:41:40.182Z,61.73
2023-10-06T10:44:25.371Z,62.03
2023-10-06T10:47:03.152Z,64.80
2023-10-06T10:49:37.235Z,62.92
2023-10-06T10:52:10.930Z,63.03
2023-10-06T10:54:44.200Z,65.89
2023-10-06T10:57:17.152Z,70.26
2023-10-06T11:00:13.929Z,69.66
2023-10-06T11:03:05.975Z,70.24
2023-10-06T11:05:38.630Z,70.99
2023-10-06T11:08:08.542Z,72.60
2023-10-06T11:10:39.606Z,74.08
2023-10-06T11:13:20.453Z,76.05
2023-10-06T11:15:50.738Z,74.89
2023-10-06T11:18:23.904Z,73.50
2023-10-06T11:20:56.383Z,72.85
2023-10-06T11:23:26.258Z,71.46
2023-10-06T11:25:56.637Z,68.65
2023-10-06T11:28:27.166Z,65.65
2023-10-06T11:30:57.003Z,62.97
2023-10-06T11:33:26.869Z,61.95
2023-10-06T11:35:59.830Z,61.58
2023-10-06T11:38:29.760Z,60.84
2023-10-06T11:40:59.671Z,63.84
2023-10-06T11:43:32.222Z,64.34
2023-10-06T11:46:04.269Z,66.35
2023-10-06T11:48:36.398Z,66.36
2023-10-06T11:51:14.329Z,67.02
2023-10-06T11:53:46.097Z,67.61
2023-10-06T11:56:17.416Z,67.64
2023-10-06T11:58:49.368Z,67.52
2023-10-06T12:01:34.519Z,67.61
2023-10-06T12:04:07.258Z,67.08
2023-10-06T12:06:46.602Z,69.15
2023-10-06T12:09:27.452Z,66.93
2023-10-06T12:11:58.907Z,66.10
2023-10-06T12:14:28.846Z,65.19
2023-10-06T12:16:58.991Z,66.75
2023-10-06T12:19:28.762Z,66.05
2023-10-06T12:22:01.258Z,67.36
2023-10-06T12:24:33.054Z,67.66
2023-10-06T12:27:02.859Z,67.44
2023-10-06T12:29:33.039Z,67.31
2023-10-06T12:32:05.309Z,66.64
2023-10-06T12:34:35.436Z,67.41
2023-10-06T12:37:08.853Z,66.21
2023-10-06T12:39:38.614Z,65.69
2023-10-06T12:42:13.210Z,66.37
2023-10-06T12:44:44.347Z,66.43
2023-10-06T12:47:14.899Z,66.39
2023-10-06T12:49:47.135Z,66.92
2023-10-06T12:52:19.660Z,66.62
2023-10-06T12:54:49.725Z,67.76
2023-10-06T12:57:19.659Z,67.73
2023-10-06T12:59:49.932Z,67.53
2023-10-06T13:02:26.528Z,68.10
2023-10-06T13:04:58.867Z,68.11
2023-10-06T13:07:32.521Z,67.07
2023-10-06T13:10:04.180Z,67.52
2023-10-06T13:12:34.080Z,67.83
2023-10-06T13:15:07.965Z,66.79
2023-10-06T13:17:37.927Z,66.28
2023-10-06T13:20:10.744Z,66.69
2023-10-06T13:22:44.071Z,66.42
2023-10-06T13:25:15.371Z,66.45
2023-10-06T13:27:48.745Z,66.23
2023-10-06T13:30:21.522Z,66.32
2023-10-06T13:32:53.783Z,65.81
2023-10-06T13:35:25.111Z,65.39
2023-10-06T13:37:58.655Z,65.58
2023-10-06T13:40:30.064Z,65.76
2023-10-06T13:42:59.892Z,64.61
2023-10-06T13:45:31.594Z,65.86
2023-10-06T13:48:04.356Z,65.69
2023-10-06T13:50:38.063Z,65.74
2023-10-06T13:53:10.771Z,65.61
2023-10-06T13:55:40.706Z,66.39
2023-10-06T13:58:11.011Z,65.61
2023-10-06T14:00:41.938Z,66.73
2023-10-06T14:03:14.951Z,65.49
2023-10-06T14:05:51.063Z,65.60
2023-10-06T14:08:23.370Z,66.15
2023-10-06T14:10:54.578Z,66.80
2023-10-06T14:13:27.656Z,66.86
2023-10-06T14:16:10.742Z,67.51
2023-10-06T14:18:42.033Z,67.75
2023-10-06T14:21:14.742Z,68.41
2023-10-06T14:23:48.593Z,69.08
2023-10-06T14:26:20.347Z,69.02
2023-10-06T14:28:51.669Z,69.04
2023-10-06T14:31:27.227Z,69.05
2023-10-06T14:34:21.817Z,68.96
2023-10-06T14:36:58.908Z,69.65
2023-10-06T14:39:43.969Z,69.76
2023-10-06T14:42:26.216Z,70.21
2023-10-06T14:45:08.413Z,70.37
2023-10-06T14:47:39.349Z,70.41
2023-10-06T14:50:14.945Z,70.34
2023-10-06T14:52:44.860Z,70.50
2023-10-06T14:55:17.559Z,71.41
2023-10-06T14:57:47.337Z,71.84
2023-10-06T15:00:17.945Z,72.11
2023-10-06T15:02:51.916Z,72.14
2023-10-06T15:05:23.782Z,72.50
2023-10-06T15:07:53.542Z,72.97
2023-10-06T15:10:29.891Z,73.14
2023-10-06T15:13:01.089Z,73.18
2023-10-06T15:15:30.788Z,73.55
2023-10-06T15:18:15.518Z,73.99
2023-10-06T15:20:48.969Z,74.15
2023-10-06T15:23:19.539Z,74.30
2023-10-06T15:26:04.529Z,74.18
2023-10-06T15:28:39.450Z,74.54
2023-10-06T15:31:09.888Z,74.91
2023-10-06T15:33:39.681Z,75.39
2023-10-06T15:36:10.672Z,75.79
2023-10-06T15:38:40.992Z,75.57
2023-10-06T15:41:17.139Z,75.80
2023-10-06T15:43:49.094Z,76.06
2023-10-06T15:46:19.168Z,77.08
2023-10-06T15:48:49.238Z,77.50
2023-10-06T15:51:20.123Z,77.77
2023-10-06T15:53:51.732Z,78.45
2023-10-06T15:56:24.882Z,78.87
2023-10-06T15:58:57.106Z,79.13
2023-10-06T16:01:28.144Z,79.68
2023-10-06T16:03:59.288Z,79.83
2023-10-06T16:06:29.083Z,80.09
2023-10-06T16:09:01.663Z,80.30
2023-10-06T16:11:35.947Z,81.15
2023-10-06T16:14:06.964Z,81.14
2023-10-06T16:16:38.672Z,81.93
2023-10-06T16:19:10.409Z,82.62
2023-10-06T16:21:42.912Z,82.59
2023-10-06T16:24:15.719Z,82.73
2023-10-06T16:26:48.469Z,83.42
2023-10-06T16:29:18.235Z,83.35
2023-10-06T16:31:48.083Z,83.41
2023-10-06T16:34:20.300Z,83.79
2023-10-06T16:36:50.109Z,84.21
2023-10-06T16:39:23.255Z,83.97
2023-10-06T16:41:55.697Z,84.56
2023-10-06T16:44:26.629Z,84.78
2023-10-06T16:46:56.682Z,85.10
2023-10-06T16:49:29.360Z,85.65
2023-10-06T16:52:00.534Z,86.06
2023-10-06T16:54:32.868Z,86.95
2023-10-06T16:57:05.271Z,87.43
2023-10-06T16:59:38.404Z,88.06
2023-10-06T17:02:11.218Z,88.91
2023-10-06T17:04:42.056Z,89.23
2023-10-06T17:07:11.772Z,89.82
2023-10-06T17:09:42.528Z,90.29
2023-10-06T17:12:14.852Z,90.20
2023-10-06T17:14:44.659Z,90.16
2023-10-06T17:17:16.090Z,90.47
2023-10-06T17:19:45.908Z,90.88
2023-10-06T17:22:15.629Z,91.33
2023-10-06T17:24:45.372Z,91.90
2023-10-06T17:27:17.993Z,91.40
2023-10-06T17:29:48.281Z,90.98
2023-10-06T17:32:18.294Z,90.66
2023-10-06T17:34:49.338Z,90.60
2023-10-06T17:39:52.607Z,91.38
2023-10-06T17:42:25.005Z,90.94
2023-10-06T17:44:54.743Z,90.77
2023-10-06T17:49:55.123Z,90.96
2023-10-06T17:52:24.874Z,90.47
2023-10-06T17:54:55.619Z,90.24
2023-10-06T17:57:28.309Z,90.38
2023-10-06T17:59:58.048Z,90.12
2023-10-06T18:02:28.026Z,89.61
2023-10-06T18:04:57.897Z,89.98
2023-10-06T18:07:28.785Z,89.36
2023-10-06T18:09:58.521Z,89.81
2023-10-06T18:12:31.300Z,89.64
2023-10-06T18:15:01.067Z,89.47
2023-10-06T18:17:31.051Z,88.97
2023-10-06T18:20:00.985Z,88.92
2023-10-06T18:22:30.756Z,89.52
2023-10-06T18:25:00.578Z,89.40
2023-10-06T18:27:32.914Z,90.15
2023-10-06T18:30:02.845Z,90.28
2023-10-06T18:32:32.713Z,90.58
2023-10-06T18:35:02.928Z,90.67
2023-10-06T18:37:33.413Z,90.43
2023-10-06T18:40:03.167Z,90.45
2023-10-06T18:42:35.606Z,90.11
2023-10-06T18:45:05.339Z,89.81
2023-10-06T18:47:35.940Z,89.58
2023-10-06T18:50:06.069Z,88.97
2023-10-06T18:52:38.542Z,88.70
2023-10-06T18:55:09.442Z,88.07
2023-10-06T18:57:42.871Z,88.11
2023-10-06T19:00:13.685Z,86.83
2023-10-06T19:02:47.103Z,86.48
2023-10-06T19:05:17.180Z,85.18
2023-10-06T19:07:47.191Z,84.72
2023-10-06T19:10:17.187Z,84.61
2023-10-06T19:12:50.106Z,83.98
2023-10-06T19:15:19.807Z,83.65
2023-10-06T19:17:49.752Z,83.40
2023-10-06T19:20:20.025Z,86.65
2023-10-06T19:22:49.994Z,87.32
2023-10-06T19:25:20.034Z,87.98
2023-10-06T19:27:54.020Z,88.54
2023-10-06T19:30:23.750Z,87.15
2023-10-06T19:32:55.707Z,86.33
2023-10-06T19:35:25.481Z,85.29
2023-10-06T19:37:55.566Z,84.28
2023-10-06T19:40:25.381Z,83.55
2023-10-06T19:42:58.074Z,83.18
2023-10-06T19:45:27.998Z,82.62
2023-10-06T19:47:58.391Z,81.43
2023-10-06T19:50:28.368Z,81.06
2023-10-06T19:52:58.952Z,81.14
2023-10-06T19:55:28.877Z,80.44
2023-10-06T19:58:01.338Z,79.68
2023-10-06T20:00:31.075Z,79.35
2023-10-06T20:03:00.997Z,79.02
2023-10-06T20:05:35.645Z,78.74
2023-10-06T20:08:06.499Z,78.64
2023-10-06T20:10:37.306Z,78.32
2023-10-06T20:13:09.851Z,78.39
2023-10-06T20:15:39.675Z,78.24
2023-10-06T20:18:11.823Z,78.07
2023-10-06T20:20:42.754Z,77.79
2023-10-06T20:23:13.555Z,77.79
2023-10-06T20:25:43.334Z,77.46
2023-10-06T20:28:15.791Z,77.27
2023-10-06T20:30:45.831Z,76.91
2023-10-06T20:33:15.604Z,76.55
2023-10-06T20:35:45.620Z,76.15
2023-10-06T20:38:15.366Z,76.13
2023-10-06T20:40:45.707Z,75.90
2023-10-06T20:43:20.128Z,75.32
2023-10-06T20:45:50.032Z,76.06
2023-10-06T20:48:20.650Z,76.07
2023-10-06T20:50:50.338Z,75.37
2023-10-06T20:53:20.194Z,75.14
2023-10-06T20:55:50.338Z,75.01
2023-10-06T20:58:25.075Z,74.89
2023-10-06T21:00:56.315Z,75.23
2023-10-06T21:03:27.130Z,75.04
2023-10-06T21:05:58.240Z,75.28
2023-10-06T21:08:28.020Z,75.53
2023-10-06T21:10:57.804Z,75.46
2023-10-06T21:13:30.273Z,75.62
2023-10-06T21:16:00.057Z,76.11
2023-10-06T21:18:29.856Z,76.04
2023-10-06T21:21:00.865Z,76.24
2023-10-06T21:23:31.546Z,76.48
2023-10-06T21:26:01.537Z,76.64
2023-10-06T21:28:35.214Z,76.63
2023-10-06T21:31:07.963Z,76.78
2023-10-06T21:33:37.695Z,77.25
2023-10-06T21:36:08.203Z,77.00
2023-10-06T21:38:37.967Z,77.20
2023-10-06T21:41:07.680Z,77.10
2023-10-06T21:43:40.041Z,77.01
2023-10-06T21:46:09.877Z,77.28
2023-10-06T21:48:40.505Z,76.97
2023-10-06T21:51:12.583Z,77.04
2023-10-06T21:53:42.354Z,76.77
2023-10-06T21:56:13.656Z,76.50
2023-10-06T21:58:46.124Z,76.56
2023-10-06T22:01:21.848Z,76.38
2023-10-06T22:03:52.161Z,76.57
2023-10-06T22:06:24.030Z,76.16
2023-10-06T22:08:54.057Z,75.66
2023-10-06T22:11:25.836Z,75.44
2023-10-06T22:13:58.220Z,74.99
2023-10-06T22:16:28.639Z,74.68
2023-10-06T22:18:58.420Z,74.81
2023-10-06T22:21:28.125Z,74.18
2023-10-06T22:23:57.842Z,73.90
2023-10-06T22:26:27.534Z,73.90
2023-10-06T22:29:00.461Z,73.72
2023-10-06T22:31:33.178Z,73.81
2023-10-06T22:34:02.994Z,73.54
2023-10-06T22:36:33.912Z,73.47
2023-10-06T22:39:04.420Z,73.89
2023-10-06T22:41:34.177Z,73.73
2023-10-06T22:44:07.079Z,73.64
2023-10-06T22:46:36.988Z,73.54
2023-10-06T22:49:07.188Z,73.71
2023-10-06T22:51:36.999Z,73.58
2023-10-06T22:54:07.250Z,73.43
2023-10-06T22:56:37.098Z,73.26
2023-10-06T22:59:09.770Z,73.11
2023-10-06T23:01:39.797Z,72.85
2023-10-06T23:04:10.707Z,73.13
2023-10-06T23:06:41.156Z,72.54
2023-10-06T23:09:18.594Z,72.55
2023-10-06T23:11:49.273Z,72.56
2023-10-06T23:14:21.626Z,72.41
2023-10-06T23:16:51.431Z,72.21
2023-10-06T23:19:21.292Z,72.66
2023-10-06T23:21:51.254Z,72.32
2023-10-06T23:24:20.980Z,72.23
2023-10-06T23:26:51.581Z,71.87
2023-10-06T23:29:23.935Z,72.25
2023-10-06T23:31:53.846Z,72.57
2023-10-06T23:34:23.675Z,72.32
2023-10-06T23:36:54.879Z,72.76
2023-10-06T23:39:26.717Z,72.52
2023-10-06T23:41:56.455Z,72.56
2023-10-06T23:44:34.564Z,72.16
2023-10-06T23:47:05.786Z,72.39
2023-10-06T23:49:36.001Z,72.39
2023-10-06T23:52:06.337Z,72.14
2023-10-06T23:54:36.030Z,72.19
2023-10-06T23:57:09.721Z,72.12
2023-10-06T23:59:44.958Z,72.53
